sensor_id;sensor_type;location;lat;lon;timestamp;pressure;altitude;pressure_sealevel;temperature;humidity
73205;BME280;61413;-27.702;153.216;2024-03-06T00:01:35;102039.77;;;26.38;29.46
73205;BME280;61413;-27.702;153.216;2024-03-06T00:04:02;102042.68;;;26.08;29.27
73205;BME280;61413;-27.702;153.216;2024-03-06T00:06:28;102046.15;;;26.37;29.47
73205;BME280;61413;-27.702;153.216;2024-03-06T00:08:55;102035.75;;;26.34;29.41
73205;BME280;61413;-27.702;153.216;2024-03-06T00:11:22;102038.33;;;26.37;29.60
73205;BME280;61413;-27.702;153.216;2024-03-06T00:13:48;102046.26;;;26.67;29.33
73205;BME280;61413;-27.702;153.216;2024-03-06T00:16:16;102034.92;;;26.50;29.32
73205;BME280;61413;-27.702;153.216;2024-03-06T00:18:43;102033.91;;;26.68;29.39
73205;BME280;61413;-27.702;153.216;2024-03-06T00:21:09;102029.68;;;26.94;29.20
73205;BME280;61413;-27.702;153.216;2024-03-06T00:23:36;102028.91;;;27.31;29.58
73205;BME280;61413;-27.702;153.216;2024-03-06T00:26:02;102023.76;;;27.42;29.39
73205;BME280;61413;-27.702;153.216;2024-03-06T00:29:35;102019.88;;;26.65;29.43
73205;BME280;61413;-27.702;153.216;2024-03-06T00:32:01;102021.90;;;26.49;29.63
73205;BME280;61413;-27.702;153.216;2024-03-06T00:34:28;102021.57;;;27.11;29.47
73205;BME280;61413;-27.702;153.216;2024-03-06T00:36:55;102019.03;;;27.59;29.44
73205;BME280;61413;-27.702;153.216;2024-03-06T00:39:22;102016.80;;;27.77;29.03
73205;BME280;61413;-27.702;153.216;2024-03-06T00:41:49;102015.04;;;27.42;29.31
73205;BME280;61413;-27.702;153.216;2024-03-06T00:46:01;102017.02;;;27.86;29.34
73205;BME280;61413;-27.702;153.216;2024-03-06T00:48:27;102022.38;;;27.76;29.43
73205;BME280;61413;-27.702;153.216;2024-03-06T00:50:54;102016.79;;;28.04;29.21
73205;BME280;61413;-27.702;153.216;2024-03-06T00:53:21;102016.10;;;28.25;29.27
73205;BME280;61413;-27.702;153.216;2024-03-06T00:55:47;102017.60;;;27.92;29.28
73205;BME280;61413;-27.702;153.216;2024-03-06T00:58:14;102018.18;;;28.15;29.31
73205;BME280;61413;-27.702;153.216;2024-03-06T01:00:40;102016.98;;;28.21;29.42
73205;BME280;61413;-27.702;153.216;2024-03-06T01:03:07;102018.70;;;27.91;29.41
73205;BME280;61413;-27.702;153.216;2024-03-06T01:08:23;102019.62;;;27.90;29.52
73205;BME280;61413;-27.702;153.216;2024-03-06T01:10:50;102016.61;;;27.39;30.01
73205;BME280;61413;-27.702;153.216;2024-03-06T01:13:17;102015.00;;;27.27;29.81
73205;BME280;61413;-27.702;153.216;2024-03-06T01:15:44;102007.20;;;26.96;29.97
73205;BME280;61413;-27.702;153.216;2024-03-06T01:18:11;101996.98;;;28.03;29.61
73205;BME280;61413;-27.702;153.216;2024-03-06T01:20:37;101991.83;;;28.42;29.34
73205;BME280;61413;-27.702;153.216;2024-03-06T01:23:04;101989.66;;;28.03;29.57
73205;BME280;61413;-27.702;153.216;2024-03-06T01:25:31;101994.14;;;27.44;29.71
73205;BME280;61413;-27.702;153.216;2024-03-06T01:27:57;101987.29;;;27.39;30.22
73205;BME280;61413;-27.702;153.216;2024-03-06T01:30:24;101987.50;;;27.42;30.56
73205;BME280;61413;-27.702;153.216;2024-03-06T01:32:51;101983.56;;;27.20;30.27
73205;BME280;61413;-27.702;153.216;2024-03-06T01:35:18;101991.33;;;27.36;30.32
73205;BME280;61413;-27.702;153.216;2024-03-06T01:37:45;101989.60;;;27.18;30.32
73205;BME280;61413;-27.702;153.216;2024-03-06T01:42:51;101987.92;;;27.17;30.46
73205;BME280;61413;-27.702;153.216;2024-03-06T01:45:18;101986.52;;;26.95;30.16
73205;BME280;61413;-27.702;153.216;2024-03-06T01:47:45;101985.50;;;26.96;30.60
73205;BME280;61413;-27.702;153.216;2024-03-06T01:50:11;101977.68;;;27.18;30.74
73205;BME280;61413;-27.702;153.216;2024-03-06T01:54:17;101969.17;;;27.42;30.92
73205;BME280;61413;-27.702;153.216;2024-03-06T01:56:47;101956.85;;;27.96;30.45
73205;BME280;61413;-27.702;153.216;2024-03-06T01:59:10;101953.97;;;28.56;30.25
73205;BME280;61413;-27.702;153.216;2024-03-06T02:01:38;101950.47;;;28.77;29.48
73205;BME280;61413;-27.702;153.216;2024-03-06T02:04:06;101948.23;;;28.67;29.43
73205;BME280;61413;-27.702;153.216;2024-03-06T02:06:31;101954.13;;;28.62;28.87
73205;BME280;61413;-27.702;153.216;2024-03-06T02:08:58;101950.76;;;28.79;28.84
73205;BME280;61413;-27.702;153.216;2024-03-06T02:11:24;101938.00;;;29.21;28.57
73205;BME280;61413;-27.702;153.216;2024-03-06T02:13:52;101932.73;;;28.94;28.55
73205;BME280;61413;-27.702;153.216;2024-03-06T02:16:19;101933.57;;;29.38;28.43
73205;BME280;61413;-27.702;153.216;2024-03-06T02:18:54;101919.25;;;29.87;28.16
73205;BME280;61413;-27.702;153.216;2024-03-06T02:21:12;101918.78;;;29.71;27.48
73205;BME280;61413;-27.702;153.216;2024-03-06T02:23:39;101922.19;;;29.11;27.58
73205;BME280;61413;-27.702;153.216;2024-03-06T02:26:06;101918.04;;;28.42;28.19
73205;BME280;61413;-27.702;153.216;2024-03-06T02:28:32;101915.38;;;27.85;28.94
73205;BME280;61413;-27.702;153.216;2024-03-06T02:30:59;101916.72;;;28.44;29.18
73205;BME280;61413;-27.702;153.216;2024-03-06T02:33:26;101908.48;;;28.83;29.09
73205;BME280;61413;-27.702;153.216;2024-03-06T02:35:53;101907.38;;;29.22;28.65
73205;BME280;61413;-27.702;153.216;2024-03-06T02:38:19;101909.88;;;28.48;28.91
73205;BME280;61413;-27.702;153.216;2024-03-06T02:40:46;101909.90;;;28.34;28.92
73205;BME280;61413;-27.702;153.216;2024-03-06T02:43:13;101915.91;;;28.49;28.67
73205;BME280;61413;-27.702;153.216;2024-03-06T02:45:39;101911.17;;;28.56;28.73
73205;BME280;61413;-27.702;153.216;2024-03-06T02:51:04;101910.21;;;28.68;29.07
73205;BME280;61413;-27.702;153.216;2024-03-06T02:54:29;101906.80;;;28.62;29.24
73205;BME280;61413;-27.702;153.216;2024-03-06T02:56:56;101909.55;;;28.91;28.35
73205;BME280;61413;-27.702;153.216;2024-03-06T03:01:52;101898.48;;;28.74;28.30
73205;BME280;61413;-27.702;153.216;2024-03-06T03:04:20;101897.94;;;28.77;27.99
73205;BME280;61413;-27.702;153.216;2024-03-06T03:06:47;101897.34;;;28.84;28.20
73205;BME280;61413;-27.702;153.216;2024-03-06T03:09:14;101889.82;;;28.52;28.07
73205;BME280;61413;-27.702;153.216;2024-03-06T03:11:43;101895.19;;;28.30;28.45
73205;BME280;61413;-27.702;153.216;2024-03-06T03:14:06;101887.77;;;27.58;28.52
73205;BME280;61413;-27.702;153.216;2024-03-06T03:16:33;101889.47;;;28.48;28.84
73205;BME280;61413;-27.702;153.216;2024-03-06T03:19:00;101885.88;;;28.37;28.90
73205;BME280;61413;-27.702;153.216;2024-03-06T03:21:27;101879.62;;;28.55;28.86
73205;BME280;61413;-27.702;153.216;2024-03-06T03:23:54;101883.01;;;28.53;28.97
73205;BME280;61413;-27.702;153.216;2024-03-06T03:26:20;101887.27;;;28.78;28.01
73205;BME280;61413;-27.702;153.216;2024-03-06T03:28:47;101877.22;;;28.71;28.17
73205;BME280;61413;-27.702;153.216;2024-03-06T03:31:14;101866.80;;;28.52;28.12
73205;BME280;61413;-27.702;153.216;2024-03-06T03:33:41;101868.85;;;28.38;28.69
73205;BME280;61413;-27.702;153.216;2024-03-06T03:36:09;101864.11;;;28.59;28.25
73205;BME280;61413;-27.702;153.216;2024-03-06T03:38:38;101864.01;;;29.17;28.01
73205;BME280;61413;-27.702;153.216;2024-03-06T03:41:07;101862.90;;;28.98;27.63
73205;BME280;61413;-27.702;153.216;2024-03-06T03:43:30;101855.00;;;29.01;27.37
73205;BME280;61413;-27.702;153.216;2024-03-06T03:45:57;101857.90;;;28.14;27.73
73205;BME280;61413;-27.702;153.216;2024-03-06T03:48:24;101858.50;;;27.46;28.06
73205;BME280;61413;-27.702;153.216;2024-03-06T03:50:50;101856.57;;;27.89;28.12
73205;BME280;61413;-27.702;153.216;2024-03-06T03:53:17;101858.12;;;28.48;27.88
73205;BME280;61413;-27.702;153.216;2024-03-06T03:55:44;101845.04;;;28.53;27.72
73205;BME280;61413;-27.702;153.216;2024-03-06T03:58:11;101840.99;;;28.71;28.18
73205;BME280;61413;-27.702;153.216;2024-03-06T04:00:37;101844.62;;;28.76;27.76
73205;BME280;61413;-27.702;153.216;2024-03-06T04:03:05;101844.18;;;28.84;27.82
73205;BME280;61413;-27.702;153.216;2024-03-06T04:05:31;101836.94;;;28.67;27.79
73205;BME280;61413;-27.702;153.216;2024-03-06T04:09:41;101831.00;;;28.73;27.72
73205;BME280;61413;-27.702;153.216;2024-03-06T04:12:08;101826.93;;;29.04;27.75
73205;BME280;61413;-27.702;153.216;2024-03-06T04:14:35;101834.70;;;28.43;27.69
73205;BME280;61413;-27.702;153.216;2024-03-06T04:17:03;101828.11;;;28.86;27.32
73205;BME280;61413;-27.702;153.216;2024-03-06T04:19:31;101824.18;;;28.69;27.11
73205;BME280;61413;-27.702;153.216;2024-03-06T04:22:06;101825.27;;;28.66;27.15
73205;BME280;61413;-27.702;153.216;2024-03-06T04:24:25;101825.69;;;28.61;27.07
73205;BME280;61413;-27.702;153.216;2024-03-06T04:26:52;101813.84;;;28.90;26.98
73205;BME280;61413;-27.702;153.216;2024-03-06T04:29:19;101814.94;;;28.71;27.16
73205;BME280;61413;-27.702;153.216;2024-03-06T04:31:46;101803.00;;;28.59;27.31
73205;BME280;61413;-27.702;153.216;2024-03-06T04:34:13;101805.38;;;28.69;27.66
73205;BME280;61413;-27.702;153.216;2024-03-06T04:36:40;101802.44;;;28.54;27.70
73205;BME280;61413;-27.702;153.216;2024-03-06T04:39:07;101801.90;;;28.82;27.41
73205;BME280;61413;-27.702;153.216;2024-03-06T04:41:34;101798.67;;;28.78;27.08
73205;BME280;61413;-27.702;153.216;2024-03-06T04:44:01;101797.09;;;28.80;27.49
73205;BME280;61413;-27.702;153.216;2024-03-06T04:46:28;101800.75;;;28.79;26.95
73205;BME280;61413;-27.702;153.216;2024-03-06T04:48:55;101800.70;;;28.69;26.64
73205;BME280;61413;-27.702;153.216;2024-03-06T04:51:22;101804.54;;;28.23;26.65
73205;BME280;61413;-27.702;153.216;2024-03-06T04:53:50;101797.16;;;28.60;26.56
73205;BME280;61413;-27.702;153.216;2024-03-06T04:56:17;101797.73;;;28.82;26.60
73205;BME280;61413;-27.702;153.216;2024-03-06T04:58:44;101801.60;;;28.48;26.82
73205;BME280;61413;-27.702;153.216;2024-03-06T05:01:11;101799.26;;;28.74;26.84
73205;BME280;61413;-27.702;153.216;2024-03-06T05:06:29;101797.22;;;28.71;26.99
73205;BME280;61413;-27.702;153.216;2024-03-06T05:08:56;101800.58;;;28.79;27.25
73205;BME280;61413;-27.702;153.216;2024-03-06T05:11:23;101801.07;;;28.51;26.96
73205;BME280;61413;-27.702;153.216;2024-03-06T05:13:50;101796.62;;;28.51;27.12
73205;BME280;61413;-27.702;153.216;2024-03-06T05:16:17;101798.32;;;28.56;27.28
73205;BME280;61413;-27.702;153.216;2024-03-06T05:18:43;101796.99;;;28.39;26.81
73205;BME280;61413;-27.702;153.216;2024-03-06T05:21:11;101801.85;;;28.44;27.08
73205;BME280;61413;-27.702;153.216;2024-03-06T05:23:38;101806.75;;;28.70;27.17
73205;BME280;61413;-27.702;153.216;2024-03-06T05:26:05;101805.51;;;28.53;26.19
73205;BME280;61413;-27.702;153.216;2024-03-06T05:28:32;101807.94;;;28.41;26.06
73205;BME280;61413;-27.702;153.216;2024-03-06T05:31:00;101808.03;;;28.36;24.88
73205;BME280;61413;-27.702;153.216;2024-03-06T05:35:01;101812.75;;;28.50;25.30
73205;BME280;61413;-27.702;153.216;2024-03-06T05:37:28;101816.68;;;28.62;25.53
73205;BME280;61413;-27.702;153.216;2024-03-06T05:39:55;101821.28;;;28.47;25.68
73205;BME280;61413;-27.702;153.216;2024-03-06T05:42:22;101815.68;;;28.35;25.73
73205;BME280;61413;-27.702;153.216;2024-03-06T05:44:49;101813.74;;;28.32;26.22
73205;BME280;61413;-27.702;153.216;2024-03-06T05:47:16;101812.47;;;28.68;26.31
73205;BME280;61413;-27.702;153.216;2024-03-06T05:49:42;101808.80;;;28.46;26.16
73205;BME280;61413;-27.702;153.216;2024-03-06T05:52:09;101806.55;;;28.29;26.65
73205;BME280;61413;-27.702;153.216;2024-03-06T05:54:37;101809.22;;;28.22;26.96
73205;BME280;61413;-27.702;153.216;2024-03-06T05:57:03;101812.41;;;28.24;27.27
73205;BME280;61413;-27.702;153.216;2024-03-06T05:59:30;101806.83;;;28.42;27.32
73205;BME280;61413;-27.702;153.216;2024-03-06T06:01:57;101809.26;;;28.06;27.40
73205;BME280;61413;-27.702;153.216;2024-03-06T06:04:24;101811.20;;;28.32;27.19
73205;BME280;61413;-27.702;153.216;2024-03-06T06:06:51;101813.32;;;28.28;26.71
73205;BME280;61413;-27.702;153.216;2024-03-06T06:09:18;101816.82;;;28.11;26.83
73205;BME280;61413;-27.702;153.216;2024-03-06T06:11:45;101821.25;;;28.11;27.17
73205;BME280;61413;-27.702;153.216;2024-03-06T06:14:12;101823.88;;;28.10;27.19
73205;BME280;61413;-27.702;153.216;2024-03-06T06:16:39;101825.30;;;28.20;26.62
73205;BME280;61413;-27.702;153.216;2024-03-06T06:19:06;101831.23;;;27.97;26.07
73205;BME280;61413;-27.702;153.216;2024-03-06T06:21:34;101835.13;;;28.12;26.27
73205;BME280;61413;-27.702;153.216;2024-03-06T06:24:01;101835.59;;;27.96;26.47
73205;BME280;61413;-27.702;153.216;2024-03-06T06:26:28;101829.64;;;28.05;26.86
73205;BME280;61413;-27.702;153.216;2024-03-06T06:28:55;101824.82;;;27.77;27.08
73205;BME280;61413;-27.702;153.216;2024-03-06T06:31:22;101826.13;;;27.88;27.27
73205;BME280;61413;-27.702;153.216;2024-03-06T06:33:49;101825.91;;;28.03;27.18
73205;BME280;61413;-27.702;153.216;2024-03-06T06:36:16;101826.97;;;27.97;27.35
73205;BME280;61413;-27.702;153.216;2024-03-06T06:38:43;101825.90;;;27.68;27.44
73205;BME280;61413;-27.702;153.216;2024-03-06T06:41:10;101823.76;;;27.31;27.47
73205;BME280;61413;-27.702;153.216;2024-03-06T06:43:37;101827.89;;;27.57;27.70
73205;BME280;61413;-27.702;153.216;2024-03-06T06:46:04;101828.64;;;27.32;27.78
73205;BME280;61413;-27.702;153.216;2024-03-06T06:48:31;101827.82;;;27.27;27.43
73205;BME280;61413;-27.702;153.216;2024-03-06T06:50:57;101831.11;;;27.37;27.10
73205;BME280;61413;-27.702;153.216;2024-03-06T06:53:24;101833.13;;;27.38;27.65
73205;BME280;61413;-27.702;153.216;2024-03-06T06:55:51;101834.70;;;27.13;27.97
73205;BME280;61413;-27.702;153.216;2024-03-06T06:58:18;101835.39;;;26.84;28.52
73205;BME280;61413;-27.702;153.216;2024-03-06T07:00:45;101836.68;;;26.97;28.91
73205;BME280;61413;-27.702;153.216;2024-03-06T07:03:12;101845.37;;;26.73;29.08
73205;BME280;61413;-27.702;153.216;2024-03-06T07:05:38;101836.81;;;26.61;29.38
73205;BME280;61413;-27.702;153.216;2024-03-06T07:08:07;101846.97;;;26.27;29.74
73205;BME280;61413;-27.702;153.216;2024-03-06T07:10:34;101843.28;;;26.52;30.00
73205;BME280;61413;-27.702;153.216;2024-03-06T07:13:01;101847.27;;;26.49;30.32
73205;BME280;61413;-27.702;153.216;2024-03-06T07:15:27;101853.07;;;26.51;30.59
73205;BME280;61413;-27.702;153.216;2024-03-06T07:17:54;101852.79;;;26.24;30.82
73205;BME280;61413;-27.702;153.216;2024-03-06T07:20:21;101856.04;;;26.07;31.06
73205;BME280;61413;-27.702;153.216;2024-03-06T07:22:48;101856.28;;;26.27;31.20
73205;BME280;61413;-27.702;153.216;2024-03-06T07:25:15;101853.71;;;26.12;31.44
73205;BME280;61413;-27.702;153.216;2024-03-06T07:27:42;101856.19;;;26.12;31.49
73205;BME280;61413;-27.702;153.216;2024-03-06T07:30:13;101855.29;;;25.70;31.76
73205;BME280;61413;-27.702;153.216;2024-03-06T07:32:36;101856.74;;;25.58;31.87
73205;BME280;61413;-27.702;153.216;2024-03-06T07:35:03;101862.06;;;25.40;31.97
73205;BME280;61413;-27.702;153.216;2024-03-06T07:39:05;101864.00;;;25.89;32.13
73205;BME280;61413;-27.702;153.216;2024-03-06T07:41:32;101861.38;;;25.67;32.16
73205;BME280;61413;-27.702;153.216;2024-03-06T07:43:58;101863.51;;;24.95;32.47
73205;BME280;61413;-27.702;153.216;2024-03-06T07:46:25;101867.24;;;25.20;32.65
73205;BME280;61413;-27.702;153.216;2024-03-06T07:48:52;101866.09;;;25.01;32.98
73205;BME280;61413;-27.702;153.216;2024-03-06T07:51:19;101866.86;;;24.96;33.08
73205;BME280;61413;-27.702;153.216;2024-03-06T07:53:45;101864.99;;;25.01;33.16
73205;BME280;61413;-27.702;153.216;2024-03-06T07:56:12;101866.17;;;24.95;33.34
73205;BME280;61413;-27.702;153.216;2024-03-06T07:58:39;101875.81;;;24.69;33.54
73205;BME280;61413;-27.702;153.216;2024-03-06T08:01:07;101873.48;;;24.56;33.68
73205;BME280;61413;-27.702;153.216;2024-03-06T08:03:34;101877.24;;;24.46;33.69
73205;BME280;61413;-27.702;153.216;2024-03-06T08:06:01;101884.76;;;24.58;33.83
73205;BME280;61413;-27.702;153.216;2024-03-06T08:08:28;101883.29;;;24.48;33.89
73205;BME280;61413;-27.702;153.216;2024-03-06T08:10:54;101882.40;;;24.23;34.05
73205;BME280;61413;-27.702;153.216;2024-03-06T08:13:21;101885.76;;;24.48;34.10
73205;BME280;61413;-27.702;153.216;2024-03-06T08:15:47;101881.90;;;24.66;34.22
73205;BME280;61413;-27.702;153.216;2024-03-06T08:18:14;101883.48;;;24.44;34.47
73205;BME280;61413;-27.702;153.216;2024-03-06T08:20:41;101880.20;;;24.28;34.59
73205;BME280;61413;-27.702;153.216;2024-03-06T08:24:38;101888.29;;;24.34;34.75
73205;BME280;61413;-27.702;153.216;2024-03-06T08:27:05;101892.51;;;24.43;34.74
73205;BME280;61413;-27.702;153.216;2024-03-06T08:29:32;101894.30;;;24.07;34.81
73205;BME280;61413;-27.702;153.216;2024-03-06T08:31:58;101892.46;;;24.21;34.71
73205;BME280;61413;-27.702;153.216;2024-03-06T08:34:25;101891.34;;;24.03;34.62
73205;BME280;61413;-27.702;153.216;2024-03-06T08:36:51;101896.34;;;24.00;34.68
73205;BME280;61413;-27.702;153.216;2024-03-06T08:39:18;101895.41;;;24.15;34.81
73205;BME280;61413;-27.702;153.216;2024-03-06T08:41:45;101900.36;;;24.28;35.05
73205;BME280;61413;-27.702;153.216;2024-03-06T08:44:11;101903.56;;;23.85;35.08
73205;BME280;61413;-27.702;153.216;2024-03-06T08:46:38;101901.42;;;24.00;35.20
73205;BME280;61413;-27.702;153.216;2024-03-06T08:49:04;101903.24;;;23.90;35.20
73205;BME280;61413;-27.702;153.216;2024-03-06T08:51:31;101901.84;;;23.96;35.24
73205;BME280;61413;-27.702;153.216;2024-03-06T08:53:57;101898.26;;;24.15;35.31
73205;BME280;61413;-27.702;153.216;2024-03-06T08:56:24;101900.58;;;23.94;35.59
73205;BME280;61413;-27.702;153.216;2024-03-06T08:58:50;101896.99;;;23.97;35.71
73205;BME280;61413;-27.702;153.216;2024-03-06T09:01:17;101902.31;;;24.18;35.78
73205;BME280;61413;-27.702;153.216;2024-03-06T09:03:44;101901.67;;;23.73;35.91
73205;BME280;61413;-27.702;153.216;2024-03-06T09:06:10;101898.48;;;24.31;35.94
73205;BME280;61413;-27.702;153.216;2024-03-06T09:08:37;101899.74;;;24.47;35.89
73205;BME280;61413;-27.702;153.216;2024-03-06T09:12:11;101902.13;;;24.66;35.84
73205;BME280;61413;-27.702;153.216;2024-03-06T09:14:39;101904.74;;;24.48;35.69
73205;BME280;61413;-27.702;153.216;2024-03-06T09:17:06;101908.40;;;24.63;35.57
73205;BME280;61413;-27.702;153.216;2024-03-06T09:19:33;101909.01;;;24.62;35.45
73205;BME280;61413;-27.702;153.216;2024-03-06T09:22:00;101912.66;;;25.12;35.27
73205;BME280;61413;-27.702;153.216;2024-03-06T09:24:26;101916.21;;;24.92;35.23
73205;BME280;61413;-27.702;153.216;2024-03-06T09:26:54;101921.66;;;24.91;35.18
73205;BME280;61413;-27.702;153.216;2024-03-06T09:29:20;101923.92;;;24.61;35.19
73205;BME280;61413;-27.702;153.216;2024-03-06T09:31:48;101923.25;;;25.16;35.23
73205;BME280;61413;-27.702;153.216;2024-03-06T09:34:15;101926.89;;;24.86;35.24
73205;BME280;61413;-27.702;153.216;2024-03-06T09:36:45;101924.68;;;25.14;35.28
73205;BME280;61413;-27.702;153.216;2024-03-06T09:39:08;101923.23;;;24.99;35.31
73205;BME280;61413;-27.702;153.216;2024-03-06T09:41:35;101927.59;;;24.79;35.38
73205;BME280;61413;-27.702;153.216;2024-03-06T09:44:01;101927.24;;;25.01;35.42
73205;BME280;61413;-27.702;153.216;2024-03-06T09:46:28;101927.52;;;24.82;35.48
73205;BME280;61413;-27.702;153.216;2024-03-06T09:48:55;101935.12;;;24.69;35.62
73205;BME280;61413;-27.702;153.216;2024-03-06T09:52:50;101935.16;;;25.08;35.98
73205;BME280;61413;-27.702;153.216;2024-03-06T09:55:17;101934.49;;;25.10;35.99
73205;BME280;61413;-27.702;153.216;2024-03-06T09:57:44;101938.22;;;24.48;36.05
73205;BME280;61413;-27.702;153.216;2024-03-06T10:00:12;101941.89;;;24.49;36.12
73205;BME280;61413;-27.702;153.216;2024-03-06T10:02:41;101950.50;;;24.80;36.25
73205;BME280;61413;-27.702;153.216;2024-03-06T10:05:05;101952.99;;;24.27;36.43
73205;BME280;61413;-27.702;153.216;2024-03-06T10:07:32;101948.92;;;24.79;36.61
73205;BME280;61413;-27.702;153.216;2024-03-06T10:09:58;101946.48;;;24.31;36.82
73205;BME280;61413;-27.702;153.216;2024-03-06T10:12:25;101948.08;;;24.51;36.98
73205;BME280;61413;-27.702;153.216;2024-03-06T10:17:24;101969.00;;;24.16;37.67
73205;BME280;61413;-27.702;153.216;2024-03-06T10:19:51;101969.59;;;24.06;37.72
73205;BME280;61413;-27.702;153.216;2024-03-06T10:22:18;101969.78;;;24.06;37.75
73205;BME280;61413;-27.702;153.216;2024-03-06T10:24:45;101968.49;;;24.06;37.77
73205;BME280;61413;-27.702;153.216;2024-03-06T10:27:16;101976.16;;;24.26;37.69
73205;BME280;61413;-27.702;153.216;2024-03-06T10:29:38;101978.14;;;24.49;37.48
73205;BME280;61413;-27.702;153.216;2024-03-06T10:32:05;101982.56;;;24.63;37.31
73205;BME280;61413;-27.702;153.216;2024-03-06T10:34:31;101984.49;;;24.62;37.18
73205;BME280;61413;-27.702;153.216;2024-03-06T10:37:01;101983.99;;;24.42;37.01
73205;BME280;61413;-27.702;153.216;2024-03-06T10:39:24;101991.11;;;24.39;37.02
73205;BME280;61413;-27.702;153.216;2024-03-06T10:41:54;101995.27;;;24.46;36.92
73205;BME280;61413;-27.702;153.216;2024-03-06T10:44:17;101997.19;;;24.25;36.79
73205;BME280;61413;-27.702;153.216;2024-03-06T10:46:44;101994.71;;;24.53;36.66
73205;BME280;61413;-27.702;153.216;2024-03-06T10:50:11;101996.31;;;24.57;36.64
73205;BME280;61413;-27.702;153.216;2024-03-06T10:52:35;101995.28;;;24.49;36.52
73205;BME280;61413;-27.702;153.216;2024-03-06T10:55:03;101997.38;;;24.51;36.40
73205;BME280;61413;-27.702;153.216;2024-03-06T10:57:31;101998.54;;;24.49;36.29
73205;BME280;61413;-27.702;153.216;2024-03-06T10:59:59;102001.40;;;24.43;36.25
73205;BME280;61413;-27.702;153.216;2024-03-06T11:02:26;101998.87;;;24.60;36.20
73205;BME280;61413;-27.702;153.216;2024-03-06T11:04:54;102003.15;;;24.58;36.19
73205;BME280;61413;-27.702;153.216;2024-03-06T11:07:21;102002.97;;;24.26;36.11
73205;BME280;61413;-27.702;153.216;2024-03-06T11:11:50;102004.54;;;24.36;36.31
73205;BME280;61413;-27.702;153.216;2024-03-06T11:14:09;102006.68;;;24.22;36.24
73205;BME280;61413;-27.702;153.216;2024-03-06T11:16:59;102005.48;;;24.30;36.16
73205;BME280;61413;-27.702;153.216;2024-03-06T11:19:09;102008.44;;;24.34;36.17
73205;BME280;61413;-27.702;153.216;2024-03-06T11:21:31;102006.57;;;24.24;36.20
73205;BME280;61413;-27.702;153.216;2024-03-06T11:24:33;102008.13;;;24.08;36.24
73205;BME280;61413;-27.702;153.216;2024-03-06T11:26:22;102007.15;;;23.87;36.30
73205;BME280;61413;-27.702;153.216;2024-03-06T11:28:48;102009.46;;;23.92;36.32
73205;BME280;61413;-27.702;153.216;2024-03-06T11:31:15;102006.10;;;23.76;36.43
73205;BME280;61413;-27.702;153.216;2024-03-06T11:35:20;102002.37;;;23.65;36.72
73205;BME280;61413;-27.702;153.216;2024-03-06T11:40:48;101999.93;;;23.65;37.08
73205;BME280;61413;-27.702;153.216;2024-03-06T11:43:24;102001.49;;;23.78;37.04
73205;BME280;61413;-27.702;153.216;2024-03-06T11:45:45;102000.11;;;23.79;37.03
73205;BME280;61413;-27.702;153.216;2024-03-06T11:48:03;101998.90;;;23.71;37.13
73205;BME280;61413;-27.702;153.216;2024-03-06T11:50:30;101995.57;;;23.80;37.20
73205;BME280;61413;-27.702;153.216;2024-03-06T11:52:57;101996.91;;;23.54;37.31
73205;BME280;61413;-27.702;153.216;2024-03-06T11:55:24;102001.08;;;23.31;37.43
73205;BME280;61413;-27.702;153.216;2024-03-06T11:57:50;102001.06;;;23.40;37.47
73205;BME280;61413;-27.702;153.216;2024-03-06T12:00:18;101998.51;;;23.25;37.64
73205;BME280;61413;-27.702;153.216;2024-03-06T12:02:44;102001.96;;;23.25;37.80
73205;BME280;61413;-27.702;153.216;2024-03-06T12:05:11;102002.89;;;23.63;37.88
73205;BME280;61413;-27.702;153.216;2024-03-06T12:07:47;102002.76;;;23.31;37.86
73205;BME280;61413;-27.702;153.216;2024-03-06T12:10:05;101999.52;;;23.32;38.00
73205;BME280;61413;-27.702;153.216;2024-03-06T12:14:58;101987.43;;;23.28;38.30
73205;BME280;61413;-27.702;153.216;2024-03-06T12:17:17;101984.46;;;23.16;38.30
73205;BME280;61413;-27.702;153.216;2024-03-06T12:19:44;101986.15;;;23.26;38.31
73205;BME280;61413;-27.702;153.216;2024-03-06T12:22:12;101987.52;;;23.25;38.41
73205;BME280;61413;-27.702;153.216;2024-03-06T12:25:27;101986.79;;;23.39;38.64
73205;BME280;61413;-27.702;153.216;2024-03-06T12:27:55;101985.33;;;23.11;38.67
73205;BME280;61413;-27.702;153.216;2024-03-06T12:30:22;101986.54;;;23.19;38.76
73205;BME280;61413;-27.702;153.216;2024-03-06T12:32:58;101985.39;;;23.10;38.88
73205;BME280;61413;-27.702;153.216;2024-03-06T12:35:25;101985.04;;;22.97;38.96
73205;BME280;61413;-27.702;153.216;2024-03-06T12:37:44;101987.34;;;22.73;39.08
73205;BME280;61413;-27.702;153.216;2024-03-06T12:40:11;101982.94;;;22.79;39.15
73205;BME280;61413;-27.702;153.216;2024-03-06T12:42:39;101983.25;;;22.92;39.29
73205;BME280;61413;-27.702;153.216;2024-03-06T12:45:06;101981.51;;;22.71;39.33
73205;BME280;61413;-27.702;153.216;2024-03-06T12:48:16;101980.48;;;22.58;39.53
73205;BME280;61413;-27.702;153.216;2024-03-06T12:50:42;101975.13;;;22.54;39.67
73205;BME280;61413;-27.702;153.216;2024-03-06T12:53:09;101974.02;;;22.76;39.73
73205;BME280;61413;-27.702;153.216;2024-03-06T12:55:36;101976.06;;;22.56;39.78
73205;BME280;61413;-27.702;153.216;2024-03-06T12:58:03;101974.08;;;22.64;39.83
73205;BME280;61413;-27.702;153.216;2024-03-06T13:00:29;101968.82;;;22.37;39.94